sensor_id;sensor_type;location;lat;lon;timestamp;temperature;humidity
1259;DHT22;619;51.472;6.628;2022-10-17T00:00:50;22.20;88.80
1259;DHT22;619;51.472;6.628;2022-10-17T00:03:18;22.20;88.90
1259;DHT22;619;51.472;6.628;2022-10-17T00:05:45;22.20;89.00
1259;DHT22;619;51.472;6.628;2022-10-17T00:08:13;22.20;89.00
1259;DHT22;619;51.472;6.628;2022-10-17T00:10:39;22.20;89.20
1259;DHT22;619;51.472;6.628;2022-10-17T00:13:05;22.10;89.10
1259;DHT22;619;51.472;6.628;2022-10-17T00:15:33;22.10;89.20
1259;DHT22;619;51.472;6.628;2022-10-17T00:17:59;22.10;89.20
1259;DHT22;619;51.472;6.628;2022-10-17T00:20:27;22.10;89.20
1259;DHT22;619;51.472;6.628;2022-10-17T00:22:55;22.00;89.20
1259;DHT22;619;51.472;6.628;2022-10-17T00:25:23;22.10;89.40
1259;DHT22;619;51.472;6.628;2022-10-17T00:27:51;22.10;89.40
1259;DHT22;619;51.472;6.628;2022-10-17T00:30:19;22.00;89.30
1259;DHT22;619;51.472;6.628;2022-10-17T00:32:45;22.00;88.80
1259;DHT22;619;51.472;6.628;2022-10-17T00:35:12;22.00;89.40
1259;DHT22;619;51.472;6.628;2022-10-17T00:37:38;22.00;89.60
1259;DHT22;619;51.472;6.628;2022-10-17T00:40:06;22.00;89.90
1259;DHT22;619;51.472;6.628;2022-10-17T00:42:32;22.00;90.00
1259;DHT22;619;51.472;6.628;2022-10-17T00:47:36;22.00;90.10
1259;DHT22;619;51.472;6.628;2022-10-17T00:50:07;21.90;90.20
1259;DHT22;619;51.472;6.628;2022-10-17T00:52:33;22.00;90.30
1259;DHT22;619;51.472;6.628;2022-10-17T00:55:15;22.00;90.40
1259;DHT22;619;51.472;6.628;2022-10-17T00:57:42;22.00;90.40
1259;DHT22;619;51.472;6.628;2022-10-17T01:00:12;22.00;90.30
1259;DHT22;619;51.472;6.628;2022-10-17T01:02:38;22.00;90.30
1259;DHT22;619;51.472;6.628;2022-10-17T01:05:05;22.10;90.40
1259;DHT22;619;51.472;6.628;2022-10-17T01:07:34;22.10;90.40
1259;DHT22;619;51.472;6.628;2022-10-17T01:10:01;22.10;90.40
1259;DHT22;619;51.472;6.628;2022-10-17T01:17:42;22.10;90.40
1259;DHT22;619;51.472;6.628;2022-10-17T01:23:23;22.10;90.50
1259;DHT22;619;51.472;6.628;2022-10-17T01:26:09;22.20;90.50
1259;DHT22;619;51.472;6.628;2022-10-17T01:31:24;22.20;90.50
1259;DHT22;619;51.472;6.628;2022-10-17T01:34:11;22.20;90.40
1259;DHT22;619;51.472;6.628;2022-10-17T01:39:43;22.20;90.40
1259;DHT22;619;51.472;6.628;2022-10-17T01:44:58;22.20;90.40
1259;DHT22;619;51.472;6.628;2022-10-17T01:47:28;22.20;90.30
1259;DHT22;619;51.472;6.628;2022-10-17T01:49:58;22.20;90.40
1259;DHT22;619;51.472;6.628;2022-10-17T01:52:35;22.20;90.30
1259;DHT22;619;51.472;6.628;2022-10-17T01:55:11;22.20;90.60
1259;DHT22;619;51.472;6.628;2022-10-17T01:57:45;22.20;90.30
1259;DHT22;619;51.472;6.628;2022-10-17T02:00:16;22.20;90.30
1259;DHT22;619;51.472;6.628;2022-10-17T02:02:46;22.20;90.30
1259;DHT22;619;51.472;6.628;2022-10-17T02:05:13;22.20;90.30
1259;DHT22;619;51.472;6.628;2022-10-17T02:07:42;22.20;90.20
1259;DHT22;619;51.472;6.628;2022-10-17T02:10:15;22.20;90.20
1259;DHT22;619;51.472;6.628;2022-10-17T02:12:47;22.20;90.20
1259;DHT22;619;51.472;6.628;2022-10-17T02:17:50;22.20;90.20
1259;DHT22;619;51.472;6.628;2022-10-17T02:23:29;22.20;90.20
1259;DHT22;619;51.472;6.628;2022-10-17T02:29:01;22.20;90.10
1259;DHT22;619;51.472;6.628;2022-10-17T02:31:32;22.20;90.10
1259;DHT22;619;51.472;6.628;2022-10-17T02:34:11;22.20;90.10
1259;DHT22;619;51.472;6.628;2022-10-17T02:36:42;22.20;90.00
1259;DHT22;619;51.472;6.628;2022-10-17T02:39:10;22.20;90.00
1259;DHT22;619;51.472;6.628;2022-10-17T02:41:37;22.20;90.10
1259;DHT22;619;51.472;6.628;2022-10-17T02:44:06;22.20;90.10
1259;DHT22;619;51.472;6.628;2022-10-17T02:46:35;22.20;90.10
1259;DHT22;619;51.472;6.628;2022-10-17T02:49:09;22.20;90.10
1259;DHT22;619;51.472;6.628;2022-10-17T02:51:46;22.10;90.00
1259;DHT22;619;51.472;6.628;2022-10-17T02:57:24;22.20;90.10
1259;DHT22;619;51.472;6.628;2022-10-17T02:59:51;22.10;90.10
1259;DHT22;619;51.472;6.628;2022-10-17T03:02:17;22.20;90.20
1259;DHT22;619;51.472;6.628;2022-10-17T03:04:44;22.20;90.10
1259;DHT22;619;51.472;6.628;2022-10-17T03:07:10;22.20;90.10
1259;DHT22;619;51.472;6.628;2022-10-17T03:09:38;22.20;90.10
1259;DHT22;619;51.472;6.628;2022-10-17T03:12:07;22.20;90.10
1259;DHT22;619;51.472;6.628;2022-10-17T03:14:32;22.20;90.00
1259;DHT22;619;51.472;6.628;2022-10-17T03:17:00;22.20;90.00
1259;DHT22;619;51.472;6.628;2022-10-17T03:19:26;22.20;90.00
1259;DHT22;619;51.472;6.628;2022-10-17T03:21:54;22.20;90.00
1259;DHT22;619;51.472;6.628;2022-10-17T03:24:24;22.20;90.00
1259;DHT22;619;51.472;6.628;2022-10-17T03:26:52;22.20;90.00
1259;DHT22;619;51.472;6.628;2022-10-17T03:29:17;22.20;90.00
1259;DHT22;619;51.472;6.628;2022-10-17T03:31:43;22.20;89.90
1259;DHT22;619;51.472;6.628;2022-10-17T03:34:09;22.30;89.90
1259;DHT22;619;51.472;6.628;2022-10-17T03:36:34;22.30;89.70
1259;DHT22;619;51.472;6.628;2022-10-17T03:39:03;22.30;89.80
1259;DHT22;619;51.472;6.628;2022-10-17T03:41:30;22.30;89.80
1259;DHT22;619;51.472;6.628;2022-10-17T03:44:01;22.30;89.80
1259;DHT22;619;51.472;6.628;2022-10-17T03:46:26;22.30;89.70
1259;DHT22;619;51.472;6.628;2022-10-17T03:48:52;22.30;89.60
1259;DHT22;619;51.472;6.628;2022-10-17T03:51:22;22.30;89.40
1259;DHT22;619;51.472;6.628;2022-10-17T03:53:50;22.40;89.50
1259;DHT22;619;51.472;6.628;2022-10-17T03:56:19;22.40;89.50
1259;DHT22;619;51.472;6.628;2022-10-17T03:58:45;22.40;89.50
1259;DHT22;619;51.472;6.628;2022-10-17T04:01:16;22.40;89.40
1259;DHT22;619;51.472;6.628;2022-10-17T04:03:42;22.40;89.30
1259;DHT22;619;51.472;6.628;2022-10-17T04:06:11;22.40;89.10
1259;DHT22;619;51.472;6.628;2022-10-17T04:08:36;22.50;89.10
1259;DHT22;619;51.472;6.628;2022-10-17T04:11:04;22.50;88.90
1259;DHT22;619;51.472;6.628;2022-10-17T04:13:33;22.40;88.90
1259;DHT22;619;51.472;6.628;2022-10-17T04:16:05;22.50;89.00
1259;DHT22;619;51.472;6.628;2022-10-17T04:18:31;22.50;88.90
1259;DHT22;619;51.472;6.628;2022-10-17T04:21:03;22.50;88.80
1259;DHT22;619;51.472;6.628;2022-10-17T04:23:29;22.50;88.70
1259;DHT22;619;51.472;6.628;2022-10-17T04:25:56;22.50;88.70
1259;DHT22;619;51.472;6.628;2022-10-17T04:28:22;22.60;88.70
1259;DHT22;619;51.472;6.628;2022-10-17T04:31:02;22.50;88.60
1259;DHT22;619;51.472;6.628;2022-10-17T04:33:31;22.50;88.50
1259;DHT22;619;51.472;6.628;2022-10-17T04:36:20;22.50;88.40
1259;DHT22;619;51.472;6.628;2022-10-17T04:38:47;22.60;88.40
1259;DHT22;619;51.472;6.628;2022-10-17T04:41:16;22.60;88.30
1259;DHT22;619;51.472;6.628;2022-10-17T04:43:44;22.60;88.20
1259;DHT22;619;51.472;6.628;2022-10-17T04:46:13;22.60;88.10
1259;DHT22;619;51.472;6.628;2022-10-17T04:48:40;22.60;88.00
1259;DHT22;619;51.472;6.628;2022-10-17T04:51:09;22.60;88.00
1259;DHT22;619;51.472;6.628;2022-10-17T04:53:36;22.60;88.10
1259;DHT22;619;51.472;6.628;2022-10-17T04:58:35;22.60;88.10
1259;DHT22;619;51.472;6.628;2022-10-17T05:01:07;22.60;88.10
1259;DHT22;619;51.472;6.628;2022-10-17T05:03:36;22.60;88.10
1259;DHT22;619;51.472;6.628;2022-10-17T05:06:10;22.60;88.00
1259;DHT22;619;51.472;6.628;2022-10-17T05:08:38;22.70;88.10
1259;DHT22;619;51.472;6.628;2022-10-17T05:11:05;22.70;88.00
1259;DHT22;619;51.472;6.628;2022-10-17T05:13:31;22.70;87.90
1259;DHT22;619;51.472;6.628;2022-10-17T05:16:00;22.70;87.80
1259;DHT22;619;51.472;6.628;2022-10-17T05:18:28;22.70;87.70
1259;DHT22;619;51.472;6.628;2022-10-17T05:20:56;22.80;87.70
1259;DHT22;619;51.472;6.628;2022-10-17T05:23:22;22.80;87.60
1259;DHT22;619;51.472;6.628;2022-10-17T05:25:55;22.80;87.50
1259;DHT22;619;51.472;6.628;2022-10-17T05:28:25;22.80;87.40
1259;DHT22;619;51.472;6.628;2022-10-17T05:30:51;22.80;87.20
1259;DHT22;619;51.472;6.628;2022-10-17T05:33:16;22.80;87.20
1259;DHT22;619;51.472;6.628;2022-10-17T05:35:42;22.80;87.20
1259;DHT22;619;51.472;6.628;2022-10-17T05:38:10;22.80;87.20
1259;DHT22;619;51.472;6.628;2022-10-17T05:40:35;22.80;87.00
1259;DHT22;619;51.472;6.628;2022-10-17T05:43:02;22.80;87.00
1259;DHT22;619;51.472;6.628;2022-10-17T05:45:30;22.80;87.00
1259;DHT22;619;51.472;6.628;2022-10-17T05:47:56;22.80;87.00
1259;DHT22;619;51.472;6.628;2022-10-17T05:50:22;22.80;87.10
1259;DHT22;619;51.472;6.628;2022-10-17T05:52:53;22.80;87.00
1259;DHT22;619;51.472;6.628;2022-10-17T05:55:19;22.70;87.00
1259;DHT22;619;51.472;6.628;2022-10-17T05:57:44;22.80;87.10
1259;DHT22;619;51.472;6.628;2022-10-17T06:00:10;22.70;87.00
1259;DHT22;619;51.472;6.628;2022-10-17T06:02:36;22.70;87.10
1259;DHT22;619;51.472;6.628;2022-10-17T06:05:02;22.70;87.00
1259;DHT22;619;51.472;6.628;2022-10-17T06:07:28;22.70;87.00
1259;DHT22;619;51.472;6.628;2022-10-17T06:09:53;22.70;87.00
1259;DHT22;619;51.472;6.628;2022-10-17T06:12:23;22.70;86.80
1259;DHT22;619;51.472;6.628;2022-10-17T06:14:49;22.70;86.80
1259;DHT22;619;51.472;6.628;2022-10-17T06:17:17;22.80;86.80
1259;DHT22;619;51.472;6.628;2022-10-17T06:19:42;22.80;86.80
1259;DHT22;619;51.472;6.628;2022-10-17T06:22:09;22.80;86.70
1259;DHT22;619;51.472;6.628;2022-10-17T06:24:34;22.80;87.40
1259;DHT22;619;51.472;6.628;2022-10-17T06:27:05;22.80;86.60
1259;DHT22;619;51.472;6.628;2022-10-17T06:29:33;22.80;86.60
1259;DHT22;619;51.472;6.628;2022-10-17T06:31:58;22.90;86.50
1259;DHT22;619;51.472;6.628;2022-10-17T06:34:24;22.90;86.40
1259;DHT22;619;51.472;6.628;2022-10-17T06:36:52;22.90;86.40
1259;DHT22;619;51.472;6.628;2022-10-17T06:39:20;23.00;86.30
1259;DHT22;619;51.472;6.628;2022-10-17T06:41:45;23.00;86.20
1259;DHT22;619;51.472;6.628;2022-10-17T06:44:14;23.10;86.00
1259;DHT22;619;51.472;6.628;2022-10-17T06:46:42;23.10;85.90
1259;DHT22;619;51.472;6.628;2022-10-17T06:49:10;23.20;85.80
1259;DHT22;619;51.472;6.628;2022-10-17T06:51:36;23.20;85.60
1259;DHT22;619;51.472;6.628;2022-10-17T06:54:02;23.30;85.60
1259;DHT22;619;51.472;6.628;2022-10-17T06:56:30;23.30;85.50
1259;DHT22;619;51.472;6.628;2022-10-17T06:58:56;23.30;85.30
1259;DHT22;619;51.472;6.628;2022-10-17T07:01:21;23.40;85.20
1259;DHT22;619;51.472;6.628;2022-10-17T07:03:50;23.40;85.10
1259;DHT22;619;51.472;6.628;2022-10-17T07:06:16;23.50;85.00
1259;DHT22;619;51.472;6.628;2022-10-17T07:08:43;23.50;84.70
1259;DHT22;619;51.472;6.628;2022-10-17T07:11:11;23.50;84.60
1259;DHT22;619;51.472;6.628;2022-10-17T07:13:37;23.60;84.50
1259;DHT22;619;51.472;6.628;2022-10-17T07:16:05;23.60;84.30
1259;DHT22;619;51.472;6.628;2022-10-17T07:18:34;23.70;84.20
1259;DHT22;619;51.472;6.628;2022-10-17T07:21:03;23.70;84.10
1259;DHT22;619;51.472;6.628;2022-10-17T07:23:35;23.80;83.90
1259;DHT22;619;51.472;6.628;2022-10-17T07:26:07;23.80;83.80
1259;DHT22;619;51.472;6.628;2022-10-17T07:28:34;23.90;83.70
1259;DHT22;619;51.472;6.628;2022-10-17T07:31:10;24.00;83.60
1259;DHT22;619;51.472;6.628;2022-10-17T07:33:37;24.00;83.40
1259;DHT22;619;51.472;6.628;2022-10-17T07:36:07;24.00;83.20
1259;DHT22;619;51.472;6.628;2022-10-17T07:38:33;24.10;83.10
1259;DHT22;619;51.472;6.628;2022-10-17T07:41:04;24.20;83.10
1259;DHT22;619;51.472;6.628;2022-10-17T07:43:32;24.30;82.80
1259;DHT22;619;51.472;6.628;2022-10-17T07:46:00;24.30;82.40
1259;DHT22;619;51.472;6.628;2022-10-17T07:48:28;24.40;82.30
1259;DHT22;619;51.472;6.628;2022-10-17T07:50:56;24.50;82.00
1259;DHT22;619;51.472;6.628;2022-10-17T07:53:24;24.50;81.70
1259;DHT22;619;51.472;6.628;2022-10-17T07:55:50;24.60;81.60
1259;DHT22;619;51.472;6.628;2022-10-17T07:58:16;24.60;81.60
1259;DHT22;619;51.472;6.628;2022-10-17T08:00:44;24.70;81.60
1259;DHT22;619;51.472;6.628;2022-10-17T08:03:15;24.80;81.50
1259;DHT22;619;51.472;6.628;2022-10-17T08:05:40;24.90;81.30
1259;DHT22;619;51.472;6.628;2022-10-17T08:08:06;25.00;81.20
1259;DHT22;619;51.472;6.628;2022-10-17T08:10:31;25.10;80.70
1259;DHT22;619;51.472;6.628;2022-10-17T08:12:57;25.20;80.10
1259;DHT22;619;51.472;6.628;2022-10-17T08:15:24;25.30;79.60
1259;DHT22;619;51.472;6.628;2022-10-17T08:17:50;25.40;79.30
1259;DHT22;619;51.472;6.628;2022-10-17T08:20:16;25.40;78.90
1259;DHT22;619;51.472;6.628;2022-10-17T08:22:46;25.60;79.20
1259;DHT22;619;51.472;6.628;2022-10-17T08:25:15;25.70;78.70
1259;DHT22;619;51.472;6.628;2022-10-17T08:27:43;25.80;78.40
1259;DHT22;619;51.472;6.628;2022-10-17T08:30:11;25.90;78.10
1259;DHT22;619;51.472;6.628;2022-10-17T08:32:37;26.00;77.80
1259;DHT22;619;51.472;6.628;2022-10-17T08:35:03;26.10;77.20
1259;DHT22;619;51.472;6.628;2022-10-17T08:37:28;26.10;77.00
1259;DHT22;619;51.472;6.628;2022-10-17T08:39:55;26.20;76.90
1259;DHT22;619;51.472;6.628;2022-10-17T08:48:10;26.40;76.50
1259;DHT22;619;51.472;6.628;2022-10-17T08:50:50;26.40;76.30
1259;DHT22;619;51.472;6.628;2022-10-17T08:53:34;26.50;76.10
1259;DHT22;619;51.472;6.628;2022-10-17T08:56:10;26.50;75.80
1259;DHT22;619;51.472;6.628;2022-10-17T08:58:39;26.50;75.40
1259;DHT22;619;51.472;6.628;2022-10-17T09:04:10;26.60;75.50
1259;DHT22;619;51.472;6.628;2022-10-17T09:14:49;26.90;74.90
1259;DHT22;619;51.472;6.628;2022-10-17T09:17:40;26.90;74.50
1259;DHT22;619;51.472;6.628;2022-10-17T09:20:13;27.00;74.60
1259;DHT22;619;51.472;6.628;2022-10-17T09:25:21;27.30;74.90
1259;DHT22;619;51.472;6.628;2022-10-17T09:27:53;27.40;74.30
1259;DHT22;619;51.472;6.628;2022-10-17T09:32:56;27.50;73.10
1259;DHT22;619;51.472;6.628;2022-10-17T09:35:24;27.60;73.10
1259;DHT22;619;51.472;6.628;2022-10-17T09:37:54;27.60;73.00
1259;DHT22;619;51.472;6.628;2022-10-17T09:40:33;27.50;72.80
1259;DHT22;619;51.472;6.628;2022-10-17T09:43:03;27.50;73.00
1259;DHT22;619;51.472;6.628;2022-10-17T09:45:32;27.40;73.20
1259;DHT22;619;51.472;6.628;2022-10-17T09:50:49;27.30;73.70
1259;DHT22;619;51.472;6.628;2022-10-17T09:53:22;27.20;74.10
1259;DHT22;619;51.472;6.628;2022-10-17T09:55:53;27.20;74.30
1259;DHT22;619;51.472;6.628;2022-10-17T09:58:22;27.10;74.20
1259;DHT22;619;51.472;6.628;2022-10-17T10:00:50;27.00;74.20
1259;DHT22;619;51.472;6.628;2022-10-17T10:06:08;26.90;74.60
1259;DHT22;619;51.472;6.628;2022-10-17T10:11:21;26.70;75.00
1259;DHT22;619;51.472;6.628;2022-10-17T10:13:48;26.70;75.20
1259;DHT22;619;51.472;6.628;2022-10-17T10:16:19;26.60;75.30
1259;DHT22;619;51.472;6.628;2022-10-17T10:18:48;26.60;75.50
1259;DHT22;619;51.472;6.628;2022-10-17T10:21:31;26.60;75.90
1259;DHT22;619;51.472;6.628;2022-10-17T10:26:45;26.60;76.20
1259;DHT22;619;51.472;6.628;2022-10-17T10:34:31;26.70;76.40
1259;DHT22;619;51.472;6.628;2022-10-17T10:37:05;26.70;76.30
1259;DHT22;619;51.472;6.628;2022-10-17T10:39:48;26.70;76.20
1259;DHT22;619;51.472;6.628;2022-10-17T10:44:47;26.80;76.00
1259;DHT22;619;51.472;6.628;2022-10-17T10:47:17;26.80;75.90
1259;DHT22;619;51.472;6.628;2022-10-17T10:49:47;26.80;75.90
1259;DHT22;619;51.472;6.628;2022-10-17T10:52:23;26.80;76.00
1259;DHT22;619;51.472;6.628;2022-10-17T10:55:05;26.70;75.90
1259;DHT22;619;51.472;6.628;2022-10-17T10:57:36;26.70;76.10
1259;DHT22;619;51.472;6.628;2022-10-17T11:00:11;26.60;76.20
1259;DHT22;619;51.472;6.628;2022-10-17T11:05:49;26.60;77.30
1259;DHT22;619;51.472;6.628;2022-10-17T11:08:25;26.50;77.70
1259;DHT22;619;51.472;6.628;2022-10-17T11:11:12;26.50;77.80
1259;DHT22;619;51.472;6.628;2022-10-17T11:14:10;26.50;78.00
1259;DHT22;619;51.472;6.628;2022-10-17T11:19:44;26.50;79.10
1259;DHT22;619;51.472;6.628;2022-10-17T11:22:27;26.50;79.50
1259;DHT22;619;51.472;6.628;2022-10-17T11:24:58;26.60;80.10
1259;DHT22;619;51.472;6.628;2022-10-17T11:27:27;26.60;80.30
1259;DHT22;619;51.472;6.628;2022-10-17T11:29:54;26.70;80.30
1259;DHT22;619;51.472;6.628;2022-10-17T11:32:46;26.70;80.40
1259;DHT22;619;51.472;6.628;2022-10-17T11:35:31;26.70;80.90
1259;DHT22;619;51.472;6.628;2022-10-17T11:38:20;26.80;81.00
1259;DHT22;619;51.472;6.628;2022-10-17T11:40:50;26.90;80.80
1259;DHT22;619;51.472;6.628;2022-10-17T11:43:35;27.00;80.60
1259;DHT22;619;51.472;6.628;2022-10-17T11:46:20;27.10;80.30
1259;DHT22;619;51.472;6.628;2022-10-17T11:51:45;27.30;79.00
1259;DHT22;619;51.472;6.628;2022-10-17T11:54:34;27.30;78.70
1259;DHT22;619;51.472;6.628;2022-10-17T11:59:52;27.20;78.80
1259;DHT22;619;51.472;6.628;2022-10-17T12:02:52;27.20;79.00
1259;DHT22;619;51.472;6.628;2022-10-17T12:05:28;27.20;79.10
1259;DHT22;619;51.472;6.628;2022-10-17T12:10:32;27.20;79.20
1259;DHT22;619;51.472;6.628;2022-10-17T12:15:54;27.00;79.30
1259;DHT22;619;51.472;6.628;2022-10-17T12:18:25;26.90;79.50
1259;DHT22;619;51.472;6.628;2022-10-17T12:20:59;26.90;79.80
1259;DHT22;619;51.472;6.628;2022-10-17T12:23:31;26.90;80.00
1259;DHT22;619;51.472;6.628;2022-10-17T12:25:58;26.90;80.20
1259;DHT22;619;51.472;6.628;2022-10-17T12:28:32;26.80;80.10
1259;DHT22;619;51.472;6.628;2022-10-17T12:31:02;26.80;80.20
1259;DHT22;619;51.472;6.628;2022-10-17T12:33:33;26.80;80.20
1259;DHT22;619;51.472;6.628;2022-10-17T12:46:46;26.70;79.80
1259;DHT22;619;51.472;6.628;2022-10-17T12:52:50;26.70;80.10
1259;DHT22;619;51.472;6.628;2022-10-17T12:55:23;26.70;80.00
1259;DHT22;619;51.472;6.628;2022-10-17T12:58:13;26.70;80.10
1259;DHT22;619;51.472;6.628;2022-10-17T13:03:23;26.70;79.90
1259;DHT22;619;51.472;6.628;2022-10-17T13:05:52;26.70;79.70
1259;DHT22;619;51.472;6.628;2022-10-17T13:08:27;26.80;79.50
1259;DHT22;619;51.472;6.628;2022-10-17T13:10:54;26.80;79.30
1259;DHT22;619;51.472;6.628;2022-10-17T13:13:43;26.90;79.10
1259;DHT22;619;51.472;6.628;2022-10-17T13:16:34;26.90;78.90
1259;DHT22;619;51.472;6.628;2022-10-17T13:19:26;26.80;78.60
1259;DHT22;619;51.472;6.628;2022-10-17T13:22:00;26.80;78.70
1259;DHT22;619;51.472;6.628;2022-10-17T13:24:35;26.70;78.80
1259;DHT22;619;51.472;6.628;2022-10-17T13:27:04;26.70;78.90
1259;DHT22;619;51.472;6.628;2022-10-17T13:29:30;26.60;79.30
1259;DHT22;619;51.472;6.628;2022-10-17T13:32:02;26.50;79.60
1259;DHT22;619;51.472;6.628;2022-10-17T13:34:30;26.50;80.00
1259;DHT22;619;51.472;6.628;2022-10-17T13:36:59;26.40;80.20
1259;DHT22;619;51.472;6.628;2022-10-17T13:39:28;26.30;80.30
1259;DHT22;619;51.472;6.628;2022-10-17T13:41:55;26.20;81.30
1259;DHT22;619;51.472;6.628;2022-10-17T13:44:27;26.20;80.80
1259;DHT22;619;51.472;6.628;2022-10-17T13:46:55;26.20;80.90
1259;DHT22;619;51.472;6.628;2022-10-17T13:51:59;26.10;81.30
1259;DHT22;619;51.472;6.628;2022-10-17T13:54:39;26.10;81.40
1259;DHT22;619;51.472;6.628;2022-10-17T13:57:25;26.10;81.50
1259;DHT22;619;51.472;6.628;2022-10-17T14:00:06;26.10;81.80
1259;DHT22;619;51.472;6.628;2022-10-17T14:02:34;26.10;81.60
1259;DHT22;619;51.472;6.628;2022-10-17T14:10:19;26.30;81.20
1259;DHT22;619;51.472;6.628;2022-10-17T14:12:49;26.40;81.00
1259;DHT22;619;51.472;6.628;2022-10-17T14:15:18;26.40;80.80
1259;DHT22;619;51.472;6.628;2022-10-17T14:17:45;26.40;80.50
1259;DHT22;619;51.472;6.628;2022-10-17T14:20:22;26.40;80.40
1259;DHT22;619;51.472;6.628;2022-10-17T14:22:53;26.50;80.40
1259;DHT22;619;51.472;6.628;2022-10-17T14:25:36;26.50;80.40
1259;DHT22;619;51.472;6.628;2022-10-17T14:30:48;26.40;80.20
1259;DHT22;619;51.472;6.628;2022-10-17T14:33:26;26.30;80.20
1259;DHT22;619;51.472;6.628;2022-10-17T14:35:57;26.30;81.10
1259;DHT22;619;51.472;6.628;2022-10-17T14:38:26;26.20;80.30
1259;DHT22;619;51.472;6.628;2022-10-17T14:41:24;26.20;80.50
1259;DHT22;619;51.472;6.628;2022-10-17T14:43:56;26.20;80.70
1259;DHT22;619;51.472;6.628;2022-10-17T14:46:22;26.20;80.80
1259;DHT22;619;51.472;6.628;2022-10-17T14:49:01;26.20;80.80
1259;DHT22;619;51.472;6.628;2022-10-17T14:51:27;26.10;80.70
1259;DHT22;619;51.472;6.628;2022-10-17T14:54:02;26.10;80.80
1259;DHT22;619;51.472;6.628;2022-10-17T14:56:48;25.90;80.90
1259;DHT22;619;51.472;6.628;2022-10-17T14:59:16;25.80;81.50
1259;DHT22;619;51.472;6.628;2022-10-17T15:01:49;25.80;81.80
1259;DHT22;619;51.472;6.628;2022-10-17T15:04:17;25.70;82.10
1259;DHT22;619;51.472;6.628;2022-10-17T15:06:53;25.70;82.30
1259;DHT22;619;51.472;6.628;2022-10-17T15:09:18;25.70;82.40
1259;DHT22;619;51.472;6.628;2022-10-17T15:11:44;25.70;82.60
1259;DHT22;619;51.472;6.628;2022-10-17T15:14:09;25.60;82.60
1259;DHT22;619;51.472;6.628;2022-10-17T15:16:35;25.60;82.80
1259;DHT22;619;51.472;6.628;2022-10-17T15:19:03;25.60;82.90
1259;DHT22;619;51.472;6.628;2022-10-17T15:21:29;25.60;83.10
1259;DHT22;619;51.472;6.628;2022-10-17T15:23:55;25.60;83.20
1259;DHT22;619;51.472;6.628;2022-10-17T15:26:23;25.50;83.30
1259;DHT22;619;51.472;6.628;2022-10-17T15:28:50;25.40;83.40
1259;DHT22;619;51.472;6.628;2022-10-17T15:31:18;25.40;83.80
1259;DHT22;619;51.472;6.628;2022-10-17T15:33:44;25.30;84.10
1259;DHT22;619;51.472;6.628;2022-10-17T15:38:49;25.20;84.70
1259;DHT22;619;51.472;6.628;2022-10-17T15:41:20;25.20;84.90
1259;DHT22;619;51.472;6.628;2022-10-17T15:43:47;25.10;85.00
1259;DHT22;619;51.472;6.628;2022-10-17T15:46:18;25.00;85.20
1259;DHT22;619;51.472;6.628;2022-10-17T15:48:44;25.00;85.40
1259;DHT22;619;51.472;6.628;2022-10-17T15:51:10;24.90;85.60
1259;DHT22;619;51.472;6.628;2022-10-17T15:53:38;24.80;85.70
1259;DHT22;619;51.472;6.628;2022-10-17T15:56:04;24.80;86.00
1259;DHT22;619;51.472;6.628;2022-10-17T15:58:35;24.70;86.20
1259;DHT22;619;51.472;6.628;2022-10-17T16:01:04;24.70;86.50
1259;DHT22;619;51.472;6.628;2022-10-17T16:03:30;24.70;86.60
1259;DHT22;619;51.472;6.628;2022-10-17T16:05:56;24.60;86.60
1259;DHT22;619;51.472;6.628;2022-10-17T16:08:24;24.60;86.80
1259;DHT22;619;51.472;6.628;2022-10-17T16:10:51;24.50;86.80
1259;DHT22;619;51.472;6.628;2022-10-17T16:13:21;24.50;87.00
1259;DHT22;619;51.472;6.628;2022-10-17T16:15:47;24.50;87.10
1259;DHT22;619;51.472;6.628;2022-10-17T16:18:17;24.40;87.00
1259;DHT22;619;51.472;6.628;2022-10-17T16:20:46;24.40;87.10
1259;DHT22;619;51.472;6.628;2022-10-17T16:23:14;24.40;87.20
1259;DHT22;619;51.472;6.628;2022-10-17T16:25:42;24.40;87.10
1259;DHT22;619;51.472;6.628;2022-10-17T16:28:08;24.30;87.10
1259;DHT22;619;51.472;6.628;2022-10-17T16:30:39;24.30;87.10
1259;DHT22;619;51.472;6.628;2022-10-17T16:33:07;24.20;87.10
1259;DHT22;619;51.472;6.628;2022-10-17T16:35:35;24.20;87.10
1259;DHT22;619;51.472;6.628;2022-10-17T16:38:00;24.20;87.20
1259;DHT22;619;51.472;6.628;2022-10-17T16:40:26;24.20;87.20
1259;DHT22;619;51.472;6.628;2022-10-17T16:42:52;24.20;87.30
1259;DHT22;619;51.472;6.628;2022-10-17T16:45:21;24.20;87.40
1259;DHT22;619;51.472;6.628;2022-10-17T16:47:47;24.20;87.40
1259;DHT22;619;51.472;6.628;2022-10-17T16:50:13;24.10;87.40
1259;DHT22;619;51.472;6.628;2022-10-17T16:52:39;24.20;87.50
1259;DHT22;619;51.472;6.628;2022-10-17T16:55:05;24.10;87.60
1259;DHT22;619;51.472;6.628;2022-10-17T16:57:34;24.10;87.80
1259;DHT22;619;51.472;6.628;2022-10-17T16:59:59;24.10;87.90
1259;DHT22;619;51.472;6.628;2022-10-17T17:02:27;24.10;87.90
1259;DHT22;619;51.472;6.628;2022-10-17T17:04:53;24.20;88.00
1259;DHT22;619;51.472;6.628;2022-10-17T17:07:21;24.20;87.90
1259;DHT22;619;51.472;6.628;2022-10-17T17:09:49;24.20;87.80
1259;DHT22;619;51.472;6.628;2022-10-17T17:12:15;24.20;87.70
1259;DHT22;619;51.472;6.628;2022-10-17T17:14:43;24.20;87.50
1259;DHT22;619;51.472;6.628;2022-10-17T17:17:08;24.20;87.30
1259;DHT22;619;51.472;6.628;2022-10-17T17:19:36;24.20;87.30
1259;DHT22;619;51.472;6.628;2022-10-17T17:22:02;24.20;87.50
1259;DHT22;619;51.472;6.628;2022-10-17T17:24:27;24.20;87.50
1259;DHT22;619;51.472;6.628;2022-10-17T17:26:56;24.20;87.60
1259;DHT22;619;51.472;6.628;2022-10-17T17:29:23;24.20;87.60
1259;DHT22;619;51.472;6.628;2022-10-17T17:31:49;24.10;87.50
1259;DHT22;619;51.472;6.628;2022-10-17T17:34:15;24.20;87.50
1259;DHT22;619;51.472;6.628;2022-10-17T17:36:41;24.20;87.50
1259;DHT22;619;51.472;6.628;2022-10-17T17:39:09;24.10;87.30
1259;DHT22;619;51.472;6.628;2022-10-17T17:41:39;24.10;87.30
1259;DHT22;619;51.472;6.628;2022-10-17T17:44:12;24.10;87.30
1259;DHT22;619;51.472;6.628;2022-10-17T17:46:38;24.10;87.40
1259;DHT22;619;51.472;6.628;2022-10-17T17:49:03;24.10;87.40
1259;DHT22;619;51.472;6.628;2022-10-17T17:51:32;24.10;87.50
1259;DHT22;619;51.472;6.628;2022-10-17T17:53:59;24.10;87.50
1259;DHT22;619;51.472;6.628;2022-10-17T17:56:26;24.00;87.50
1259;DHT22;619;51.472;6.628;2022-10-17T17:59:00;24.10;87.60
1259;DHT22;619;51.472;6.628;2022-10-17T18:01:29;24.10;87.60
1259;DHT22;619;51.472;6.628;2022-10-17T18:03:56;24.10;87.60
1259;DHT22;619;51.472;6.628;2022-10-17T18:06:26;24.10;87.50
1259;DHT22;619;51.472;6.628;2022-10-17T18:08:56;24.00;87.30
1259;DHT22;619;51.472;6.628;2022-10-17T18:11:26;24.00;87.40
1259;DHT22;619;51.472;6.628;2022-10-17T18:14:03;24.00;87.30
1259;DHT22;619;51.472;6.628;2022-10-17T18:16:30;24.00;87.30
1259;DHT22;619;51.472;6.628;2022-10-17T18:18:57;24.00;87.40
1259;DHT22;619;51.472;6.628;2022-10-17T18:21:23;24.00;87.40
1259;DHT22;619;51.472;6.628;2022-10-17T18:23:49;24.00;87.40
1259;DHT22;619;51.472;6.628;2022-10-17T18:26:16;23.90;87.30
1259;DHT22;619;51.472;6.628;2022-10-17T18:28:45;23.90;87.40
1259;DHT22;619;51.472;6.628;2022-10-17T18:31:16;23.90;87.50
1259;DHT22;619;51.472;6.628;2022-10-17T18:33:52;23.90;87.50
1259;DHT22;619;51.472;6.628;2022-10-17T18:36:20;23.90;87.50